createdAt,value
2023-03-17T00:00:54.218Z,66.68
2023-03-17T00:03:29.848Z,66.22
2023-03-17T00:06:02.048Z,66.35
2023-03-17T00:08:36.129Z,66.20
2023-03-17T00:11:15.334Z,66.11
2023-03-17T00:13:46.412Z,66.11
2023-03-17T00:16:22.252Z,65.69
2023-03-17T00:18:54.885Z,65.53
2023-03-17T00:21:35.787Z,65.27
2023-03-17T00:24:06.755Z,65.37
2023-03-17T00:26:36.255Z,65.44
2023-03-17T00:29:06.220Z,65.24
2023-03-17T00:31:36.581Z,65.34
2023-03-17T00:34:08.205Z,65.28
2023-03-17T00:36:37.597Z,65.14
2023-03-17T00:41:43.825Z,65.07
2023-03-17T00:44:14.659Z,64.90
2023-03-17T00:46:44.828Z,64.98
2023-03-17T00:49:22.385Z,64.96
2023-03-17T00:51:54.965Z,64.73
2023-03-17T00:54:24.428Z,64.81
2023-03-17T00:56:53.901Z,65.04
2023-03-17T00:59:38.805Z,64.99
2023-03-17T01:02:13.351Z,64.85
2023-03-17T01:04:50.000Z,64.72
2023-03-17T01:07:22.687Z,64.75
2023-03-17T01:09:53.024Z,64.85
2023-03-17T01:12:22.502Z,64.54
2023-03-17T01:14:52.940Z,64.51
2023-03-17T01:17:23.188Z,64.58
2023-03-17T01:19:52.986Z,64.12
2023-03-17T01:22:22.519Z,64.24
2023-03-17T01:24:51.968Z,64.18
2023-03-17T01:27:22.167Z,64.00
2023-03-17T01:29:55.714Z,64.08
2023-03-17T01:32:25.857Z,64.17
2023-03-17T01:34:55.245Z,63.98
2023-03-17T01:37:24.739Z,64.05
2023-03-17T01:39:54.728Z,64.08
2023-03-17T01:42:24.171Z,63.78
2023-03-17T01:45:01.647Z,63.71
2023-03-17T01:47:32.228Z,63.53
2023-03-17T01:50:09.018Z,63.40
2023-03-17T01:52:40.716Z,63.62
2023-03-17T01:55:14.906Z,63.63
2023-03-17T01:57:53.566Z,63.73
2023-03-17T02:00:25.044Z,63.34
2023-03-17T02:02:57.697Z,63.45
2023-03-17T02:05:31.158Z,63.20
2023-03-17T02:08:00.605Z,63.26
2023-03-17T02:10:32.459Z,63.25
2023-03-17T02:13:05.876Z,63.37
2023-03-17T02:15:46.432Z,63.16
2023-03-17T02:18:18.593Z,62.74
2023-03-17T02:20:48.013Z,63.04
2023-03-17T02:23:23.050Z,63.00
2023-03-17T02:25:54.347Z,62.96
2023-03-17T02:28:30.576Z,62.97
2023-03-17T02:31:00.045Z,62.73
2023-03-17T02:33:30.244Z,62.60
2023-03-17T02:35:59.795Z,62.55
2023-03-17T02:38:29.210Z,62.71
2023-03-17T02:41:02.433Z,62.28
2023-03-17T02:43:31.904Z,62.31
2023-03-17T02:46:02.587Z,61.88
2023-03-17T02:48:34.300Z,62.08
2023-03-17T02:51:04.379Z,61.83
2023-03-17T02:53:33.855Z,61.38
2023-03-17T02:56:04.060Z,61.27
2023-03-17T02:58:33.573Z,61.10
2023-03-17T03:01:03.794Z,61.04
2023-03-17T03:03:33.468Z,61.08
2023-03-17T03:06:03.227Z,61.04
2023-03-17T03:08:32.994Z,61.25
2023-03-17T03:11:03.587Z,61.03
2023-03-17T03:13:33.106Z,61.36
2023-03-17T03:16:02.447Z,61.36
2023-03-17T03:18:33.196Z,61.16
2023-03-17T03:21:05.816Z,61.22
2023-03-17T03:23:36.130Z,61.39
2023-03-17T03:26:05.907Z,61.13
2023-03-17T03:28:35.366Z,61.05
2023-03-17T03:31:05.117Z,61.07
2023-03-17T03:33:35.267Z,60.83
2023-03-17T03:36:04.960Z,60.70
2023-03-17T03:38:34.912Z,60.78
2023-03-17T03:41:05.289Z,60.77
2023-03-17T03:43:36.688Z,60.54
2023-03-17T03:46:07.214Z,60.29
2023-03-17T03:48:37.209Z,60.33
2023-03-17T03:51:07.034Z,60.18
2023-03-17T03:53:37.459Z,59.91
2023-03-17T03:56:07.539Z,60.02
2023-03-17T03:58:37.270Z,60.12
2023-03-17T04:01:08.278Z,59.91
2023-03-17T04:03:39.305Z,59.81
2023-03-17T04:06:09.872Z,59.91
2023-03-17T04:08:39.316Z,59.68
2023-03-17T04:11:08.954Z,59.50
2023-03-17T04:13:38.758Z,59.61
2023-03-17T04:16:08.522Z,59.46
2023-03-17T04:18:37.979Z,59.34
2023-03-17T04:21:08.625Z,59.15
2023-03-17T04:23:38.019Z,58.89
2023-03-17T04:26:07.596Z,59.17
2023-03-17T04:28:36.938Z,59.15
2023-03-17T04:31:08.205Z,59.36
2023-03-17T04:33:38.497Z,58.89
2023-03-17T04:36:09.717Z,58.81
2023-03-17T04:38:39.253Z,58.34
2023-03-17T04:41:11.045Z,58.09
2023-03-17T04:43:41.384Z,57.50
2023-03-17T04:46:11.134Z,57.89
2023-03-17T04:48:41.521Z,57.83
2023-03-17T04:51:11.903Z,57.79
2023-03-17T04:53:41.400Z,57.65
2023-03-17T04:56:12.003Z,57.49
2023-03-17T04:58:41.408Z,57.52
2023-03-17T05:01:11.549Z,57.60
2023-03-17T05:03:41.279Z,57.32
2023-03-17T05:06:11.115Z,57.06
2023-03-17T05:08:40.641Z,57.01
2023-03-17T05:11:09.935Z,56.69
2023-03-17T05:13:43.391Z,56.78
2023-03-17T05:16:13.249Z,56.54
2023-03-17T05:18:43.987Z,56.67
2023-03-17T05:21:13.443Z,56.78
2023-03-17T05:23:43.140Z,56.60
2023-03-17T05:26:13.296Z,56.24
2023-03-17T05:28:43.368Z,56.42
2023-03-17T05:31:12.871Z,56.36
2023-03-17T05:33:42.521Z,56.45
2023-03-17T05:36:12.244Z,56.65
2023-03-17T05:38:42.893Z,56.41
2023-03-17T05:41:12.600Z,56.41
2023-03-17T05:43:44.429Z,56.00
2023-03-17T05:46:14.037Z,56.18
2023-03-17T05:48:43.968Z,55.74
2023-03-17T05:51:13.558Z,55.45
2023-03-17T05:53:43.708Z,55.54
2023-03-17T05:56:13.714Z,55.64
2023-03-17T05:58:43.264Z,55.03
2023-03-17T06:01:12.973Z,55.13
2023-03-17T06:03:44.255Z,54.57
2023-03-17T06:06:14.053Z,54.49
2023-03-17T06:08:44.230Z,54.24
2023-03-17T06:11:13.828Z,54.36
2023-03-17T06:13:43.227Z,54.45
2023-03-17T06:16:13.133Z,53.88
2023-03-17T06:18:43.017Z,53.82
2023-03-17T06:21:14.045Z,53.50
2023-03-17T06:23:43.720Z,53.51
2023-03-17T06:26:13.253Z,53.87
2023-03-17T06:28:42.660Z,53.96
2023-03-17T06:31:12.236Z,53.93
2023-03-17T06:33:41.946Z,54.19
2023-03-17T06:36:13.898Z,53.75
2023-03-17T06:38:46.505Z,53.76
2023-03-17T06:41:16.296Z,53.75
2023-03-17T06:43:45.717Z,53.69
2023-03-17T06:46:15.682Z,53.69
2023-03-17T06:48:45.456Z,53.51
2023-03-17T06:51:14.951Z,53.85
2023-03-17T06:53:44.432Z,54.43
2023-03-17T06:56:27.404Z,53.74
2023-03-17T06:58:59.977Z,52.69
2023-03-17T07:01:29.526Z,52.14
2023-03-17T07:04:00.590Z,50.69
2023-03-17T07:06:31.576Z,50.47
2023-03-17T07:09:02.349Z,49.76
2023-03-17T07:11:32.889Z,49.60
2023-03-17T07:14:05.404Z,49.56
2023-03-17T07:16:35.213Z,48.52
2023-03-17T07:19:05.245Z,48.47
2023-03-17T07:21:34.732Z,47.73
2023-03-17T07:24:05.027Z,46.82
2023-03-17T07:26:34.595Z,46.58
2023-03-17T07:29:06.121Z,45.24
2023-03-17T07:31:38.892Z,44.41
2023-03-17T07:34:08.543Z,44.30
2023-03-17T07:36:39.018Z,43.12
2023-03-17T07:39:12.199Z,42.74
2023-03-17T07:41:42.893Z,42.47
2023-03-17T07:44:13.512Z,42.61
2023-03-17T07:46:43.001Z,42.76
2023-03-17T07:49:15.364Z,42.12
2023-03-17T07:51:55.266Z,41.49
2023-03-17T07:54:27.192Z,41.24
2023-03-17T07:56:57.174Z,41.15
2023-03-17T07:59:28.150Z,41.29
2023-03-17T08:01:59.853Z,40.34
2023-03-17T08:04:29.836Z,40.44
2023-03-17T08:06:59.356Z,40.66
2023-03-17T08:09:28.926Z,40.86
2023-03-17T08:11:58.651Z,40.26
2023-03-17T08:14:28.089Z,40.13
2023-03-17T08:16:58.464Z,39.93
2023-03-17T08:19:29.903Z,40.85
2023-03-17T08:21:59.911Z,39.81
2023-03-17T08:24:29.657Z,39.24
2023-03-17T08:27:00.851Z,39.16
2023-03-17T08:29:35.939Z,38.92
2023-03-17T08:32:06.328Z,38.53
2023-03-17T08:34:36.434Z,38.55
2023-03-17T08:37:10.122Z,38.16
2023-03-17T08:39:41.114Z,37.63
2023-03-17T08:42:11.042Z,37.11
2023-03-17T08:44:43.541Z,36.82
2023-03-17T08:47:24.291Z,36.37
2023-03-17T08:49:56.458Z,35.59
2023-03-17T08:52:26.503Z,35.49
2023-03-17T08:54:59.719Z,35.76
2023-03-17T08:57:45.244Z,35.56
2023-03-17T09:00:20.663Z,35.64
2023-03-17T09:02:56.351Z,34.83
2023-03-17T09:05:30.896Z,34.89
2023-03-17T09:08:01.896Z,33.97
2023-03-17T09:10:31.995Z,33.94
2023-03-17T09:13:04.454Z,33.38
2023-03-17T09:15:37.957Z,33.15
2023-03-17T09:18:09.387Z,32.05
2023-03-17T09:20:39.784Z,32.09
2023-03-17T09:23:10.860Z,32.40
2023-03-17T09:25:42.514Z,31.98
2023-03-17T09:28:13.598Z,31.02
2023-03-17T09:30:43.571Z,31.00
2023-03-17T09:33:17.994Z,30.71
2023-03-17T09:35:48.213Z,30.18
2023-03-17T09:38:17.748Z,30.44
2023-03-17T09:41:06.894Z,30.60
2023-03-17T09:44:08.962Z,29.76
2023-03-17T09:47:09.715Z,29.27
2023-03-17T09:49:49.865Z,29.06
2023-03-17T09:52:34.577Z,29.39
2023-03-17T09:55:08.906Z,28.32
2023-03-17T09:57:44.106Z,28.65
2023-03-17T10:00:18.396Z,28.88
2023-03-17T10:02:48.634Z,28.50
2023-03-17T10:05:35.979Z,28.45
2023-03-17T10:08:30.750Z,26.99
2023-03-17T10:11:29.718Z,27.63
2023-03-17T10:14:41.019Z,27.02
2023-03-17T10:17:27.339Z,27.11
2023-03-17T10:20:09.215Z,27.02
2023-03-17T10:22:59.142Z,27.60
2023-03-17T10:25:34.087Z,27.31
2023-03-17T10:28:33.281Z,26.94
2023-03-17T10:31:33.776Z,26.77
2023-03-17T10:34:26.851Z,26.65
2023-03-17T10:37:12.425Z,25.97
2023-03-17T10:40:05.595Z,25.67
2023-03-17T10:42:50.075Z,25.08
2023-03-17T10:45:33.513Z,25.06
2023-03-17T10:48:07.814Z,25.08
2023-03-17T10:50:41.804Z,23.73
2023-03-17T10:53:44.556Z,24.21
2023-03-17T10:56:30.257Z,25.16
2023-03-17T10:59:39.507Z,25.85
2023-03-17T11:02:36.324Z,26.03
2023-03-17T11:05:27.044Z,25.20
2023-03-17T11:08:15.115Z,25.43
2023-03-17T11:11:08.085Z,25.00
2023-03-17T11:13:37.643Z,25.19
2023-03-17T11:16:24.916Z,25.79
2023-03-17T11:19:00.606Z,25.52
2023-03-17T11:21:47.676Z,25.41
2023-03-17T11:24:59.383Z,24.94
2023-03-17T11:27:36.835Z,25.28
2023-03-17T11:30:44.865Z,25.25
2023-03-17T11:33:51.264Z,25.18
2023-03-17T11:37:00.113Z,25.55
2023-03-17T11:39:49.096Z,25.68
2023-03-17T11:42:37.712Z,24.81
2023-03-17T11:45:29.166Z,24.55
2023-03-17T11:48:27.871Z,24.51
2023-03-17T11:51:16.329Z,24.49
2023-03-17T11:54:29.412Z,24.54
2023-03-17T11:57:09.091Z,24.07
2023-03-17T11:59:52.385Z,23.26
2023-03-17T12:02:31.698Z,24.11
2023-03-17T12:05:25.287Z,24.29
2023-03-17T12:08:37.987Z,23.67
2023-03-17T12:11:13.178Z,22.96
2023-03-17T12:14:15.822Z,22.01
2023-03-17T12:17:05.467Z,22.36
2023-03-17T12:20:22.754Z,22.14
2023-03-17T12:23:11.215Z,21.51
2023-03-17T12:26:14.941Z,21.14
2023-03-17T12:29:03.241Z,20.37
2023-03-17T12:31:57.046Z,20.01
2023-03-17T12:34:59.218Z,20.58
2023-03-17T12:37:30.482Z,19.93
2023-03-17T12:40:15.090Z,19.99
2023-03-17T12:43:08.944Z,19.52
2023-03-17T12:45:46.496Z,19.27
2023-03-17T12:48:55.785Z,18.83
2023-03-17T12:52:05.551Z,18.52
2023-03-17T12:54:39.909Z,19.08
2023-03-17T12:57:22.316Z,19.03
2023-03-17T13:00:17.530Z,18.63
2023-03-17T13:03:13.610Z,18.32
2023-03-17T13:05:51.514Z,18.50
2023-03-17T13:08:34.631Z,18.08
2023-03-17T13:11:45.858Z,17.93
2023-03-17T13:14:46.481Z,18.21
2023-03-17T13:17:19.894Z,18.27
2023-03-17T13:20:08.248Z,18.34
2023-03-17T13:23:12.756Z,18.55
2023-03-17T13:25:43.732Z,18.55
2023-03-17T13:28:13.323Z,18.70
2023-03-17T13:31:16.381Z,18.38
2023-03-17T13:33:57.808Z,17.88
2023-03-17T13:37:28.263Z,17.54
2023-03-17T13:40:58.717Z,17.72
2023-03-17T13:43:56.111Z,17.68
2023-03-17T13:46:31.921Z,17.70
2023-03-17T13:49:48.233Z,17.56
2023-03-17T13:52:59.491Z,17.19
2023-03-17T13:55:35.240Z,17.61
2023-03-17T13:58:11.987Z,17.83
2023-03-17T14:00:55.889Z,17.98
2023-03-17T14:03:49.222Z,18.14
2023-03-17T14:06:22.726Z,17.73
2023-03-17T14:08:58.268Z,17.28
2023-03-17T14:11:36.469Z,16.99
2023-03-17T14:14:50.063Z,16.80
2023-03-17T14:17:34.442Z,16.83
2023-03-17T14:20:16.295Z,16.76
2023-03-17T14:23:00.328Z,16.61
2023-03-17T14:25:41.065Z,17.41
2023-03-17T14:28:17.329Z,18.32
2023-03-17T14:30:59.548Z,19.33
2023-03-17T14:33:36.719Z,20.05
2023-03-17T14:36:14.600Z,20.48
2023-03-17T14:38:51.734Z,21.34
2023-03-17T14:41:28.968Z,21.49
2023-03-17T14:44:03.289Z,21.35
2023-03-17T14:46:40.614Z,22.06
2023-03-17T14:49:21.420Z,22.83
2023-03-17T14:51:53.843Z,23.17
2023-03-17T14:54:36.000Z,23.56
2023-03-17T14:57:09.241Z,23.79
2023-03-17T15:00:03.567Z,24.11
2023-03-17T15:02:55.504Z,24.48
2023-03-17T15:05:46.994Z,24.72
2023-03-17T15:08:36.068Z,25.17
2023-03-17T15:11:15.094Z,25.64
2023-03-17T15:13:45.173Z,25.42
2023-03-17T15:16:35.157Z,25.76
2023-03-17T15:19:23.351Z,26.31
2023-03-17T15:21:53.041Z,26.75
2023-03-17T15:24:47.570Z,26.76
2023-03-17T15:27:18.934Z,26.79
2023-03-17T15:29:48.481Z,26.99
2023-03-17T15:32:23.643Z,27.46
2023-03-17T15:34:59.619Z,28.06
2023-03-17T15:37:34.052Z,28.33
2023-03-17T15:40:06.230Z,28.43
2023-03-17T15:42:41.327Z,28.92
2023-03-17T15:45:17.201Z,28.81
2023-03-17T15:47:47.895Z,28.86
2023-03-17T15:50:30.441Z,28.82
2023-03-17T15:53:01.431Z,28.99
2023-03-17T15:55:32.545Z,29.18
2023-03-17T15:58:02.080Z,29.55
2023-03-17T16:00:33.621Z,29.60
2023-03-17T16:03:18.733Z,29.86
2023-03-17T16:05:48.315Z,30.20
2023-03-17T16:08:19.197Z,30.39
2023-03-17T16:10:49.502Z,30.38
2023-03-17T16:13:19.832Z,30.51
2023-03-17T16:16:05.683Z,30.78
2023-03-17T16:18:38.388Z,31.23
2023-03-17T16:21:08.008Z,31.11
2023-03-17T16:23:40.808Z,31.42
2023-03-17T16:26:16.069Z,31.09
2023-03-17T16:28:48.003Z,31.20
2023-03-17T16:31:33.338Z,31.99
2023-03-17T16:34:02.836Z,32.45
2023-03-17T16:36:32.638Z,32.77
2023-03-17T16:39:02.577Z,32.75
2023-03-17T16:41:35.459Z,32.87
2023-03-17T16:44:06.649Z,32.89
2023-03-17T16:46:36.162Z,33.12
2023-03-17T16:49:06.493Z,33.39
2023-03-17T16:51:35.964Z,33.65
2023-03-17T16:54:05.570Z,33.87
2023-03-17T16:56:42.472Z,34.21
2023-03-17T16:59:21.399Z,34.59
2023-03-17T17:01:51.076Z,35.11
2023-03-17T17:04:20.634Z,35.03
2023-03-17T17:06:50.796Z,35.22
2023-03-17T17:09:20.490Z,35.72
2023-03-17T17:11:50.126Z,35.82
2023-03-17T17:14:19.902Z,35.76
2023-03-17T17:16:49.383Z,36.24
2023-03-17T17:19:18.961Z,36.00
2023-03-17T17:21:48.452Z,36.03
2023-03-17T17:24:17.796Z,35.99
2023-03-17T17:26:47.312Z,36.05
2023-03-17T17:29:16.708Z,36.58
2023-03-17T17:31:46.238Z,36.56
2023-03-17T17:34:15.612Z,36.65
2023-03-17T17:36:45.115Z,36.93
2023-03-17T17:39:14.896Z,36.73
2023-03-17T17:41:44.327Z,36.72
2023-03-17T17:44:13.749Z,37.10
2023-03-17T17:46:43.313Z,37.09
2023-03-17T17:49:13.115Z,36.97
2023-03-17T17:51:42.504Z,37.02
2023-03-17T17:54:12.480Z,37.08
2023-03-17T17:56:46.961Z,37.10
2023-03-17T17:59:16.793Z,37.32
2023-03-17T18:01:46.265Z,37.17
2023-03-17T18:04:15.927Z,37.17
2023-03-17T18:06:46.524Z,37.35
2023-03-17T18:09:16.728Z,37.19
2023-03-17T18:11:46.220Z,37.24
2023-03-17T18:14:15.578Z,37.15
2023-03-17T18:16:45.336Z,37.30
2023-03-17T18:19:15.993Z,37.33
2023-03-17T18:21:46.729Z,37.17
2023-03-17T18:24:16.502Z,37.20
2023-03-17T18:26:45.912Z,37.47
2023-03-17T18:29:15.444Z,37.35
2023-03-17T18:31:49.758Z,37.35
2023-03-17T18:34:32.812Z,37.61
2023-03-17T18:37:02.736Z,37.52
2023-03-17T18:39:32.691Z,37.45
2023-03-17T18:42:03.245Z,37.60
2023-03-17T18:44:33.259Z,37.53
2023-03-17T18:47:03.491Z,37.57
2023-03-17T18:49:33.863Z,37.86
2023-03-17T18:52:03.261Z,37.71
2023-03-17T18:54:34.370Z,37.99
2023-03-17T18:57:03.994Z,37.93
2023-03-17T18:59:33.323Z,37.97
2023-03-17T19:02:04.801Z,38.17
2023-03-17T19:04:34.237Z,38.49
2023-03-17T19:07:03.683Z,38.49
2023-03-17T19:09:33.558Z,38.52
2023-03-17T19:12:02.987Z,38.61
2023-03-17T19:14:32.483Z,39.05
2023-03-17T19:17:01.832Z,39.07
2023-03-17T19:19:32.285Z,39.05
2023-03-17T19:22:02.153Z,39.13
2023-03-17T19:24:32.395Z,39.33
2023-03-17T19:27:01.989Z,39.58
2023-03-17T19:29:32.640Z,39.67
2023-03-17T19:32:02.570Z,39.85
2023-03-17T19:34:32.317Z,39.86
2023-03-17T19:37:03.671Z,39.95
2023-03-17T19:39:34.146Z,39.87
2023-03-17T19:42:03.779Z,39.94
2023-03-17T19:44:34.333Z,40.27
2023-03-17T19:47:06.784Z,40.03
2023-03-17T19:49:37.842Z,39.90
2023-03-17T19:52:08.315Z,40.15
2023-03-17T19:54:38.361Z,40.62
2023-03-17T19:57:07.757Z,41.00
2023-03-17T19:59:37.179Z,41.17
2023-03-17T20:02:08.042Z,41.63
2023-03-17T20:04:38.040Z,41.43
2023-03-17T20:07:07.691Z,41.63
2023-03-17T20:09:38.193Z,41.87
2023-03-17T20:12:08.130Z,41.56
2023-03-17T20:14:37.577Z,42.26
2023-03-17T20:17:07.085Z,42.26
2023-03-17T20:19:39.484Z,42.95
2023-03-17T20:22:09.133Z,42.98
2023-03-17T20:24:39.238Z,43.10
2023-03-17T20:27:10.728Z,43.46
2023-03-17T20:29:40.168Z,43.76
2023-03-17T20:32:11.614Z,43.86
2023-03-17T20:34:45.085Z,44.13
2023-03-17T20:37:14.847Z,44.47
2023-03-17T20:39:44.441Z,44.60
2023-03-17T20:42:14.895Z,44.11
2023-03-17T20:44:44.447Z,44.13
2023-03-17T20:47:14.340Z,44.12
2023-03-17T20:49:43.962Z,44.38
2023-03-17T20:52:15.112Z,44.50
2023-03-17T20:54:45.851Z,44.63
2023-03-17T20:57:16.165Z,44.62
2023-03-17T20:59:45.693Z,45.20
2023-03-17T21:02:18.450Z,45.30
2023-03-17T21:04:49.253Z,45.39
2023-03-17T21:07:21.687Z,45.43
2023-03-17T21:09:51.832Z,45.45
2023-03-17T21:12:21.456Z,45.62
2023-03-17T21:14:50.818Z,45.83
2023-03-17T21:17:20.256Z,45.74
2023-03-17T21:19:49.689Z,45.69
2023-03-17T21:22:19.146Z,46.08
2023-03-17T21:24:49.186Z,46.21
2023-03-17T21:27:18.971Z,46.30
2023-03-17T21:29:49.070Z,45.99
2023-03-17T21:32:18.740Z,46.11
2023-03-17T21:34:48.265Z,45.69
2023-03-17T21:37:18.484Z,45.74
2023-03-17T21:39:47.854Z,45.73
2023-03-17T21:42:17.202Z,45.95
2023-03-17T21:44:48.410Z,46.08
2023-03-17T21:47:19.094Z,46.05
2023-03-17T21:49:48.555Z,46.26
2023-03-17T21:52:21.985Z,46.71
2023-03-17T21:54:51.695Z,46.93
2023-03-17T21:57:21.163Z,46.90
2023-03-17T21:59:50.593Z,47.01
2023-03-17T22:02:21.097Z,47.60
2023-03-17T22:04:50.539Z,47.39
2023-03-17T22:07:20.031Z,47.13
2023-03-17T22:09:53.486Z,47.06
2023-03-17T22:12:24.489Z,46.95
2023-03-17T22:14:58.400Z,47.01
2023-03-17T22:17:28.225Z,46.97
2023-03-17T22:19:58.055Z,46.95
2023-03-17T22:22:29.036Z,47.14
2023-03-17T22:24:58.564Z,47.50
2023-03-17T22:27:28.044Z,47.53
2023-03-17T22:29:57.871Z,47.75
2023-03-17T22:32:27.347Z,47.46
2023-03-17T22:34:56.881Z,47.49
2023-03-17T22:37:26.830Z,47.88
2023-03-17T22:39:56.982Z,48.03
2023-03-17T22:42:26.721Z,47.83
2023-03-17T22:44:56.382Z,47.96
2023-03-17T22:47:25.842Z,47.94
2023-03-17T22:49:55.241Z,47.76
2023-03-17T22:52:24.755Z,48.11
2023-03-17T22:54:54.144Z,48.12
2023-03-17T22:57:23.650Z,48.21
2023-03-17T22:59:55.386Z,48.31
2023-03-17T23:02:26.391Z,48.61
2023-03-17T23:04:55.809Z,48.26
2023-03-17T23:07:25.174Z,48.19
2023-03-17T23:09:54.603Z,48.37
2023-03-17T23:12:24.813Z,48.48
2023-03-17T23:14:54.539Z,48.12
2023-03-17T23:17:24.006Z,48.13
2023-03-17T23:19:53.492Z,48.36
2023-03-17T23:22:22.895Z,48.20
2023-03-17T23:24:53.406Z,48.33
2023-03-17T23:27:22.732Z,48.41
2023-03-17T23:29:53.338Z,48.67
2023-03-17T23:32:23.220Z,48.92
2023-03-17T23:34:52.944Z,48.97
2023-03-17T23:37:22.481Z,48.73
2023-03-17T23:39:51.967Z,48.93
2023-03-17T23:42:21.464Z,49.18
2023-03-17T23:44:50.742Z,49.50
2023-03-17T23:47:20.747Z,49.32
2023-03-17T23:49:50.125Z,49.45
2023-03-17T23:52:22.021Z,49.34
2023-03-17T23:54:51.459Z,49.52
2023-03-17T23:57:21.050Z,49.59
2023-03-17T23:59:50.860Z,49.44
